createdAt,value
2018-07-14T00:00:28.758Z,39.70
2018-07-14T00:01:28.803Z,37.50
2018-07-14T00:02:28.862Z,38.00
2018-07-14T00:03:28.883Z,38.90
2018-07-14T00:04:28.936Z,36.60
2018-07-14T00:05:28.964Z,36.00
2018-07-14T00:06:29.057Z,37.90
2018-07-14T00:07:29.083Z,37.30
2018-07-14T00:08:29.135Z,36.70
2018-07-14T00:09:29.317Z,36.30
2018-07-14T00:10:29.194Z,36.00
2018-07-14T00:11:29.217Z,35.70
2018-07-14T00:12:29.314Z,38.00
2018-07-14T00:13:29.324Z,37.10
2018-07-14T00:14:29.355Z,37.70
2018-07-14T00:15:29.411Z,37.20
2018-07-14T00:16:29.434Z,36.10
2018-07-14T00:17:29.487Z,37.20
2018-07-14T00:18:29.528Z,37.10
2018-07-14T00:19:29.554Z,37.00
2018-07-14T00:20:29.585Z,40.10
2018-07-14T00:21:29.646Z,44.90
2018-07-14T00:22:29.700Z,48.70
2018-07-14T00:23:29.760Z,41.20
2018-07-14T00:24:29.786Z,47.30
2018-07-14T00:25:29.830Z,48.00
2018-07-14T00:26:29.899Z,50.30
2018-07-14T00:27:29.906Z,43.70
2018-07-14T00:28:29.936Z,41.60
2018-07-14T00:29:30.017Z,40.70
2018-07-14T00:30:30.054Z,38.30
2018-07-14T00:31:30.098Z,39.00
2018-07-14T00:32:30.134Z,35.40
2018-07-14T00:33:30.202Z,38.90
2018-07-14T00:34:30.217Z,38.40
2018-07-14T00:35:30.274Z,39.30
2018-07-14T00:36:30.308Z,35.50
2018-07-14T00:37:30.352Z,35.60
2018-07-14T00:38:30.398Z,35.00
2018-07-14T00:39:30.498Z,35.60
2018-07-14T00:40:30.486Z,34.30
2018-07-14T00:41:30.515Z,34.60
2018-07-14T00:42:30.553Z,34.70
2018-07-14T00:43:30.588Z,34.50
2018-07-14T00:44:30.637Z,34.20
2018-07-14T00:45:30.716Z,35.40
2018-07-14T00:46:30.737Z,35.70
2018-07-14T00:47:30.766Z,35.00
2018-07-14T00:48:30.837Z,34.00
2018-07-14T00:49:30.863Z,34.20
2018-07-14T00:50:30.953Z,36.20
2018-07-14T00:51:30.960Z,33.60
2018-07-14T00:52:30.989Z,33.90
2018-07-14T00:53:31.046Z,76.20
2018-07-14T00:54:31.095Z,34.10
2018-07-14T00:55:31.113Z,35.40
2018-07-14T00:56:31.178Z,35.50
2018-07-14T00:57:31.192Z,34.50
2018-07-14T00:58:31.243Z,33.00
2018-07-14T00:59:31.299Z,34.90
2018-07-14T01:00:31.339Z,34.10
2018-07-14T01:01:31.391Z,35.90
2018-07-14T01:02:31.436Z,36.40
2018-07-14T01:03:31.476Z,38.10
2018-07-14T01:04:31.533Z,37.00
2018-07-14T01:05:31.573Z,35.80
2018-07-14T01:06:31.619Z,35.80
2018-07-14T01:07:31.634Z,49.30
2018-07-14T01:08:31.675Z,38.30
2018-07-14T01:09:31.715Z,36.30
2018-07-14T01:10:31.790Z,37.90
2018-07-14T01:11:31.815Z,38.80
2018-07-14T01:12:31.867Z,37.00
2018-07-14T01:13:32.103Z,37.30
2018-07-14T01:14:31.958Z,37.10
2018-07-14T01:15:31.976Z,38.40
2018-07-14T01:16:32.010Z,38.90
2018-07-14T01:17:32.064Z,40.70
2018-07-14T01:18:32.119Z,42.40
2018-07-14T01:19:32.158Z,43.90
2018-07-14T01:20:32.196Z,44.30
2018-07-14T01:21:32.233Z,45.20
2018-07-14T01:22:32.260Z,46.00
2018-07-14T01:23:32.328Z,46.20
2018-07-14T01:24:32.380Z,47.10
2018-07-14T01:25:32.603Z,46.90
2018-07-14T01:26:32.438Z,46.90
2018-07-14T01:27:32.478Z,45.70
2018-07-14T01:28:32.565Z,46.60
2018-07-14T01:29:32.564Z,48.10
2018-07-14T01:30:32.661Z,48.20
2018-07-14T01:31:32.654Z,47.00
2018-07-14T01:32:32.695Z,46.40
2018-07-14T01:33:32.756Z,46.60
2018-07-14T01:34:32.788Z,46.00
2018-07-14T01:35:32.818Z,44.40
2018-07-14T01:36:32.867Z,44.70
2018-07-14T01:37:33.152Z,40.70
2018-07-14T01:38:32.932Z,39.90
2018-07-14T01:39:32.987Z,40.70
2018-07-14T01:40:33.098Z,39.10
2018-07-14T01:41:33.095Z,38.10
2018-07-14T01:42:33.118Z,39.20
2018-07-14T01:43:33.160Z,40.40
2018-07-14T01:44:33.205Z,38.90
2018-07-14T01:45:33.261Z,39.20
2018-07-14T01:46:33.314Z,42.20
2018-07-14T01:47:33.340Z,40.40
2018-07-14T01:48:33.396Z,40.00
2018-07-14T01:49:33.429Z,39.30
2018-07-14T01:50:33.474Z,39.40
2018-07-14T01:51:33.512Z,40.20
2018-07-14T01:52:33.552Z,40.70
2018-07-14T01:53:33.587Z,39.90
2018-07-14T01:54:33.642Z,39.10
2018-07-14T01:55:33.672Z,38.90
2018-07-14T01:56:33.760Z,38.70
2018-07-14T01:57:33.759Z,37.90
2018-07-14T01:58:33.813Z,39.20
2018-07-14T01:59:33.835Z,38.60
2018-07-14T02:00:33.906Z,39.50
2018-07-14T02:01:33.942Z,39.40
2018-07-14T02:02:33.969Z,40.40
2018-07-14T02:03:34.030Z,40.20
2018-07-14T02:04:34.272Z,40.20
2018-07-14T02:05:34.098Z,42.90
2018-07-14T02:06:34.129Z,42.70
2018-07-14T02:07:34.181Z,43.20
2018-07-14T02:08:34.218Z,44.70
2018-07-14T02:09:34.265Z,45.00
2018-07-14T02:10:34.322Z,45.40
2018-07-14T02:11:34.371Z,47.00
2018-07-14T02:12:34.392Z,47.00
2018-07-14T02:13:34.454Z,46.40
2018-07-14T02:14:34.473Z,45.30
2018-07-14T02:15:34.736Z,47.10
2018-07-14T02:16:34.577Z,46.20
2018-07-14T02:17:34.647Z,46.50
2018-07-14T02:18:34.627Z,46.00
2018-07-14T02:19:34.682Z,43.80
2018-07-14T02:20:34.753Z,45.10
2018-07-14T02:21:34.781Z,45.10
2018-07-14T02:22:34.833Z,42.00
2018-07-14T02:23:34.860Z,43.50
2018-07-14T02:24:34.906Z,46.50
2018-07-14T02:25:34.920Z,44.90
2018-07-14T02:26:34.986Z,43.90
2018-07-14T02:27:35.036Z,45.90
2018-07-14T02:28:35.078Z,46.00
2018-07-14T02:29:35.100Z,46.50
2018-07-14T02:30:35.180Z,48.20
2018-07-14T02:31:35.234Z,50.00
2018-07-14T02:32:35.248Z,48.50
2018-07-14T02:33:35.280Z,48.40
2018-07-14T02:34:35.314Z,49.10
2018-07-14T02:35:35.365Z,46.60
2018-07-14T02:36:35.401Z,49.30
2018-07-14T02:37:35.463Z,48.40
2018-07-14T02:38:35.478Z,46.50
2018-07-14T02:39:35.526Z,47.50
2018-07-14T02:40:35.584Z,44.30
2018-07-14T02:41:35.624Z,46.10
2018-07-14T02:42:35.651Z,48.50
2018-07-14T02:43:35.702Z,48.80
2018-07-14T02:44:35.782Z,48.10
2018-07-14T02:45:35.783Z,46.20
2018-07-14T02:46:35.829Z,46.80
2018-07-14T02:47:35.872Z,47.50
2018-07-14T02:48:35.922Z,48.40
2018-07-14T02:49:35.933Z,53.30
2018-07-14T02:50:35.979Z,57.40
2018-07-14T02:51:36.040Z,52.50
2018-07-14T02:52:36.079Z,49.30
2018-07-14T02:53:36.109Z,56.10
2018-07-14T02:54:36.154Z,50.30
2018-07-14T02:55:36.212Z,51.70
2018-07-14T02:56:36.243Z,63.70
2018-07-14T02:57:36.299Z,61.50
2018-07-14T02:58:36.327Z,55.30
2018-07-14T02:59:36.463Z,49.90
2018-07-14T03:00:36.389Z,48.90
2018-07-14T03:01:36.457Z,49.00
2018-07-14T03:02:36.490Z,49.30
2018-07-14T03:03:36.537Z,50.40
2018-07-14T03:04:36.597Z,45.70
2018-07-14T03:05:36.607Z,43.70
2018-07-14T03:06:36.668Z,43.40
2018-07-14T03:07:36.732Z,48.70
2018-07-14T03:08:36.742Z,50.80
2018-07-14T03:09:36.789Z,58.20
2018-07-14T03:10:36.846Z,60.20
2018-07-14T03:11:36.858Z,52.90
2018-07-14T03:12:36.920Z,57.30
2018-07-14T03:13:36.950Z,57.10
2018-07-14T03:14:36.997Z,52.20
2018-07-14T03:15:37.044Z,56.80
2018-07-14T03:16:37.086Z,55.60
2018-07-14T03:17:37.114Z,65.20
2018-07-14T03:18:37.180Z,59.10
2018-07-14T03:19:37.305Z,63.90
2018-07-14T03:20:37.252Z,61.10
2018-07-14T03:21:37.479Z,61.70
2018-07-14T03:22:37.321Z,53.50
2018-07-14T03:23:37.354Z,55.00
2018-07-14T03:24:37.410Z,51.00
2018-07-14T03:25:37.450Z,47.30
2018-07-14T03:26:37.494Z,48.70
2018-07-14T03:27:37.545Z,53.80
2018-07-14T03:28:37.555Z,52.00
2018-07-14T03:29:37.624Z,64.90
2018-07-14T03:30:37.655Z,56.00
2018-07-14T03:31:37.726Z,48.60
2018-07-14T03:32:37.793Z,51.20
2018-07-14T03:33:37.793Z,51.00
2018-07-14T03:34:37.823Z,47.90
2018-07-14T03:35:37.868Z,46.90
2018-07-14T03:36:37.923Z,48.10
2018-07-14T03:37:37.976Z,49.00
2018-07-14T03:38:37.988Z,48.50
2018-07-14T03:39:38.242Z,50.90
2018-07-14T03:40:38.064Z,51.50
2018-07-14T03:41:38.123Z,49.00
2018-07-14T03:42:38.157Z,46.60
2018-07-14T03:43:38.194Z,48.10
2018-07-14T03:44:38.247Z,49.30
2018-07-14T03:45:38.273Z,46.60
2018-07-14T03:46:38.337Z,48.20
2018-07-14T03:47:38.368Z,48.70
2018-07-14T03:48:38.403Z,48.30
2018-07-14T03:49:38.458Z,47.40
2018-07-14T03:50:38.675Z,47.10
2018-07-14T03:51:38.543Z,47.40
2018-07-14T03:52:38.597Z,47.60
2018-07-14T03:53:38.622Z,48.60
2018-07-14T03:54:38.664Z,49.00
2018-07-14T03:55:38.727Z,49.40
2018-07-14T03:56:38.801Z,50.10
2018-07-14T03:57:38.840Z,48.40
2018-07-14T03:58:38.857Z,49.50
2018-07-14T03:59:38.862Z,49.70
2018-07-14T04:00:38.921Z,50.20
2018-07-14T04:01:38.966Z,50.90
2018-07-14T04:02:39.015Z,49.60
2018-07-14T04:03:39.061Z,49.70
2018-07-14T04:04:39.088Z,52.30
2018-07-14T04:05:39.120Z,53.60
2018-07-14T04:06:39.239Z,51.40
2018-07-14T04:07:39.192Z,53.80
2018-07-14T04:08:39.246Z,52.30
2018-07-14T04:09:39.310Z,52.90
2018-07-14T04:10:39.343Z,55.20
2018-07-14T04:11:39.379Z,52.40
2018-07-14T04:12:39.706Z,57.30
2018-07-14T04:13:39.471Z,56.40
2018-07-14T04:14:39.551Z,56.50
2018-07-14T04:15:39.554Z,57.20
2018-07-14T04:16:39.631Z,55.90
2018-07-14T04:17:39.631Z,55.70
2018-07-14T04:18:39.674Z,54.30
2018-07-14T04:19:39.735Z,57.10
2018-07-14T04:20:39.766Z,55.00
2018-07-14T04:21:39.815Z,52.00
2018-07-14T04:22:39.845Z,55.90
2018-07-14T04:23:39.864Z,55.60
2018-07-14T04:24:39.948Z,58.20
2018-07-14T04:25:39.967Z,58.20
2018-07-14T04:26:40.009Z,56.70
2018-07-14T04:27:40.275Z,57.10
2018-07-14T04:28:40.111Z,56.80
2018-07-14T04:29:40.155Z,58.10
2018-07-14T04:30:40.199Z,57.40
2018-07-14T04:31:40.224Z,59.10
2018-07-14T04:32:40.262Z,58.50
2018-07-14T04:33:40.335Z,59.30
2018-07-14T04:34:40.378Z,60.30
2018-07-14T04:35:40.413Z,58.00
2018-07-14T04:36:40.437Z,57.50
2018-07-14T04:37:40.493Z,56.50
2018-07-14T04:38:40.521Z,58.30
2018-07-14T04:39:40.818Z,60.20
2018-07-14T04:40:40.619Z,57.80
2018-07-14T04:41:40.689Z,65.60
2018-07-14T04:42:40.680Z,63.60
2018-07-14T04:43:40.727Z,63.90
2018-07-14T04:44:40.795Z,65.10
2018-07-14T04:45:40.886Z,65.90
2018-07-14T04:46:40.884Z,63.70
2018-07-14T04:47:40.923Z,65.30
2018-07-14T04:48:40.938Z,66.10
2018-07-14T04:49:40.977Z,63.70
2018-07-14T04:50:41.052Z,67.10
2018-07-14T04:51:41.093Z,67.10
2018-07-14T04:52:41.134Z,66.00
2018-07-14T04:53:41.196Z,65.50
2018-07-14T04:54:41.209Z,67.10
2018-07-14T04:55:41.466Z,67.50
2018-07-14T04:56:41.293Z,64.90
2018-07-14T04:57:41.352Z,66.60
2018-07-14T04:58:41.356Z,69.40
2018-07-14T04:59:41.420Z,66.90
2018-07-14T05:00:41.472Z,67.50
2018-07-14T05:01:41.503Z,70.10
2018-07-14T05:02:41.547Z,68.70
2018-07-14T05:03:41.604Z,65.70
2018-07-14T05:04:41.651Z,66.70
2018-07-14T05:05:41.681Z,66.80
2018-07-14T05:06:41.706Z,67.20
2018-07-14T05:07:41.774Z,69.80
2018-07-14T05:08:41.806Z,66.90
2018-07-14T05:09:41.837Z,67.30
2018-07-14T05:10:41.865Z,70.50
2018-07-14T05:11:41.927Z,75.00
2018-07-14T05:12:41.997Z,70.60
2018-07-14T05:13:41.990Z,71.70
2018-07-14T05:14:42.048Z,73.60
2018-07-14T05:15:42.088Z,69.30
2018-07-14T05:16:42.151Z,70.70
2018-07-14T05:17:42.182Z,71.00
2018-07-14T05:18:42.238Z,69.00
2018-07-14T05:19:42.256Z,69.50
2018-07-14T05:20:42.306Z,69.20
2018-07-14T05:21:42.369Z,71.50
2018-07-14T05:22:42.597Z,70.60
2018-07-14T05:23:42.434Z,74.20
2018-07-14T05:24:42.511Z,75.10
2018-07-14T05:25:42.511Z,73.20
2018-07-14T05:26:42.556Z,73.70
2018-07-14T05:27:42.627Z,73.90
2018-07-14T05:28:42.714Z,73.00
2018-07-14T05:29:42.702Z,72.10
2018-07-14T05:30:42.782Z,71.40
2018-07-14T05:31:42.796Z,73.10
2018-07-14T05:32:42.832Z,70.80
2018-07-14T05:33:42.914Z,76.00
2018-07-14T05:34:42.926Z,75.30
2018-07-14T05:35:42.940Z,72.30
2018-07-14T05:36:43.005Z,72.90
2018-07-14T05:37:43.032Z,75.70
2018-07-14T05:38:43.077Z,73.20
2018-07-14T05:39:43.183Z,73.60
2018-07-14T05:40:43.192Z,75.80
2018-07-14T05:41:43.230Z,71.80
2018-07-14T05:42:43.255Z,67.10
2018-07-14T05:43:43.481Z,67.70
2018-07-14T05:44:43.368Z,69.80
2018-07-14T05:45:43.376Z,70.50
2018-07-14T05:46:43.448Z,73.90
2018-07-14T05:47:43.461Z,73.30
2018-07-14T05:48:43.521Z,71.20
2018-07-14T05:49:43.601Z,71.40
2018-07-14T05:50:43.619Z,73.20
2018-07-14T05:51:43.660Z,72.00
2018-07-14T05:52:43.733Z,69.10
2018-07-14T05:53:43.752Z,71.50
2018-07-14T05:54:43.787Z,71.50
2018-07-14T05:55:43.994Z,69.10
2018-07-14T05:56:43.880Z,67.90
2018-07-14T05:57:43.912Z,65.90
2018-07-14T05:58:43.952Z,63.20
2018-07-14T05:59:44.007Z,62.20
2018-07-14T06:00:44.021Z,63.20
2018-07-14T06:01:44.049Z,62.50
2018-07-14T06:02:44.118Z,59.80
2018-07-14T06:03:44.162Z,61.00
2018-07-14T06:04:44.194Z,59.20
2018-07-14T06:05:44.244Z,58.80
2018-07-14T06:06:44.477Z,58.90
2018-07-14T06:07:44.358Z,61.50
2018-07-14T06:08:44.369Z,59.30
2018-07-14T06:09:44.394Z,59.70
2018-07-14T06:10:44.446Z,60.00
2018-07-14T06:11:44.496Z,58.20
2018-07-14T06:12:44.549Z,57.10
2018-07-14T06:13:44.592Z,56.50
2018-07-14T06:14:44.625Z,56.60
2018-07-14T06:15:44.675Z,55.60
2018-07-14T06:16:44.703Z,55.40
2018-07-14T06:17:44.955Z,56.60
2018-07-14T06:18:44.782Z,60.20
2018-07-14T06:19:44.823Z,57.30
2018-07-14T06:20:44.895Z,56.70
2018-07-14T06:21:44.948Z,103.70
2018-07-14T06:22:44.955Z,56.00
2018-07-14T06:23:45.016Z,57.00
2018-07-14T06:24:45.064Z,57.00
2018-07-14T06:25:45.078Z,56.00
2018-07-14T06:26:45.143Z,56.60
2018-07-14T06:27:45.182Z,54.10
2018-07-14T06:28:45.218Z,55.50
2018-07-14T06:29:45.450Z,61.50
2018-07-14T06:30:45.345Z,58.00
2018-07-14T06:31:45.342Z,57.60
2018-07-14T06:32:45.444Z,54.70
2018-07-14T06:33:45.406Z,57.90
2018-07-14T06:34:45.511Z,56.30
2018-07-14T06:35:45.497Z,57.60
2018-07-14T06:36:45.563Z,59.10
2018-07-14T06:37:45.589Z,58.80
2018-07-14T06:38:45.766Z,58.20
2018-07-14T06:39:45.686Z,56.40
2018-07-14T06:40:45.732Z,58.20
2018-07-14T06:41:45.993Z,58.70
2018-07-14T06:42:45.790Z,56.30
2018-07-14T06:43:45.902Z,56.90
2018-07-14T06:44:45.967Z,59.50
2018-07-14T06:45:45.918Z,57.80
2018-07-14T06:46:45.982Z,60.50
2018-07-14T06:47:46.013Z,59.10
2018-07-14T06:48:46.069Z,60.20
2018-07-14T06:49:46.107Z,58.40
2018-07-14T06:50:46.161Z,59.20
2018-07-14T06:51:46.203Z,60.30
2018-07-14T06:52:46.453Z,57.10
2018-07-14T06:53:46.273Z,58.00
2018-07-14T06:54:46.304Z,59.00
2018-07-14T06:55:46.393Z,59.90
2018-07-14T06:56:46.390Z,59.00
2018-07-14T06:57:46.462Z,60.80
2018-07-14T06:58:46.496Z,59.10
2018-07-14T06:59:46.537Z,63.00
2018-07-14T07:00:46.611Z,60.90
2018-07-14T07:01:46.627Z,63.20
2018-07-14T07:02:46.660Z,59.40
2018-07-14T07:03:46.900Z,58.30
2018-07-14T07:04:46.759Z,60.20
2018-07-14T07:05:46.793Z,61.80
2018-07-14T07:06:46.833Z,64.50
2018-07-14T07:07:46.873Z,62.70
2018-07-14T07:08:46.936Z,65.70
2018-07-14T07:09:46.956Z,66.30
2018-07-14T07:10:47.009Z,64.80
2018-07-14T07:11:47.040Z,62.70
2018-07-14T07:12:47.136Z,64.30
2018-07-14T07:13:47.154Z,61.60
2018-07-14T07:14:47.176Z,62.00
2018-07-14T07:15:47.200Z,63.30
2018-07-14T07:16:47.260Z,63.40
2018-07-14T07:17:47.290Z,66.90
2018-07-14T07:18:47.522Z,60.70
2018-07-14T07:19:47.390Z,59.60
2018-07-14T07:20:47.419Z,61.70
2018-07-14T07:21:47.476Z,62.90
2018-07-14T07:22:47.518Z,65.20
2018-07-14T07:23:47.566Z,60.60
2018-07-14T07:24:47.629Z,60.30
2018-07-14T07:25:47.658Z,63.70
2018-07-14T07:26:47.706Z,63.70
2018-07-14T07:27:47.744Z,62.70
2018-07-14T07:28:47.803Z,62.60
2018-07-14T07:29:47.822Z,66.90
2018-07-14T07:30:47.851Z,58.80
2018-07-14T07:31:47.911Z,62.00
2018-07-14T07:32:47.977Z,80.60
2018-07-14T07:33:48.235Z,86.00
2018-07-14T07:34:48.027Z,67.10
2018-07-14T07:35:48.078Z,68.20
2018-07-14T07:36:48.126Z,75.20
2018-07-14T07:37:48.174Z,77.90
2018-07-14T07:38:48.206Z,66.20
2018-07-14T07:39:48.245Z,62.00
2018-07-14T07:40:48.276Z,67.20
2018-07-14T07:41:48.340Z,62.00
2018-07-14T07:42:48.382Z,56.80
2018-07-14T07:43:48.463Z,57.60
2018-07-14T07:44:48.460Z,56.50
2018-07-14T07:45:48.486Z,56.40
2018-07-14T07:46:48.516Z,58.60
2018-07-14T07:47:48.577Z,58.40
2018-07-14T07:48:48.858Z,58.40
2018-07-14T07:49:48.657Z,58.90
2018-07-14T07:50:48.725Z,59.40
2018-07-14T07:51:48.750Z,60.80
2018-07-14T07:52:48.787Z,59.00
2018-07-14T07:53:48.835Z,58.80
2018-07-14T07:54:48.884Z,61.00
2018-07-14T07:55:48.929Z,61.20
2018-07-14T07:56:48.945Z,60.30
2018-07-14T07:57:48.998Z,63.90
2018-07-14T07:58:49.075Z,62.20
2018-07-14T07:59:49.090Z,60.60
2018-07-14T08:00:49.315Z,64.30
2018-07-14T08:01:49.236Z,62.70
2018-07-14T08:02:49.208Z,62.60
2018-07-14T08:03:49.282Z,62.00
2018-07-14T08:04:49.292Z,64.10
2018-07-14T08:05:49.358Z,61.20
2018-07-14T08:06:49.392Z,61.20
2018-07-14T08:07:49.408Z,62.20
2018-07-14T08:08:49.483Z,60.10
2018-07-14T08:09:49.551Z,60.80
2018-07-14T08:10:49.574Z,61.00
2018-07-14T08:11:49.616Z,60.40
2018-07-14T08:12:49.857Z,59.90
2018-07-14T08:13:49.677Z,60.10
2018-07-14T08:14:49.712Z,60.30
2018-07-14T08:15:49.765Z,59.60
2018-07-14T08:16:49.804Z,60.50
2018-07-14T08:17:49.859Z,61.90
2018-07-14T08:18:49.919Z,61.90
2018-07-14T08:19:49.929Z,58.90
2018-07-14T08:20:50.011Z,59.50
2018-07-14T08:21:50.024Z,61.60
2018-07-14T08:22:50.097Z,62.00
2018-07-14T08:23:50.091Z,61.60
2018-07-14T08:24:50.337Z,62.10
2018-07-14T08:25:50.183Z,63.30
2018-07-14T08:26:50.236Z,62.90
2018-07-14T08:27:50.280Z,64.30
2018-07-14T08:28:50.321Z,63.00
2018-07-14T08:29:50.350Z,65.60
2018-07-14T08:30:50.393Z,68.20
2018-07-14T08:31:50.446Z,62.70
2018-07-14T08:32:50.506Z,62.40
2018-07-14T08:33:50.563Z,64.90
2018-07-14T08:34:50.561Z,64.70
2018-07-14T08:35:50.623Z,67.90
2018-07-14T08:36:50.664Z,66.60
2018-07-14T08:37:50.687Z,72.10
2018-07-14T08:38:50.733Z,75.10
2018-07-14T08:39:50.981Z,69.90
2018-07-14T08:40:50.804Z,77.50
2018-07-14T08:41:50.860Z,78.30
2018-07-14T08:42:50.899Z,85.00
2018-07-14T08:43:51.018Z,75.20
2018-07-14T08:44:51.008Z,75.00
2018-07-14T08:45:51.030Z,76.40
2018-07-14T08:46:51.107Z,79.20
2018-07-14T08:47:51.115Z,70.40
2018-07-14T08:48:51.138Z,69.00
2018-07-14T08:49:51.202Z,73.20
2018-07-14T08:50:51.441Z,85.70
2018-07-14T08:51:51.287Z,87.00
2018-07-14T08:52:51.337Z,84.90
2018-07-14T08:53:51.351Z,98.80
2018-07-14T08:54:51.407Z,104.00
2018-07-14T08:55:51.434Z,94.80
2018-07-14T08:56:51.494Z,87.60
2018-07-14T08:57:51.526Z,87.20
2018-07-14T08:58:51.580Z,95.90
2018-07-14T08:59:51.631Z,87.70
2018-07-14T09:00:51.668Z,89.60
2018-07-14T09:01:51.711Z,91.60
2018-07-14T09:02:51.723Z,91.30
2018-07-14T09:03:51.806Z,87.00
2018-07-14T09:04:51.822Z,83.70
2018-07-14T09:05:52.068Z,93.50
2018-07-14T09:06:51.918Z,98.90
2018-07-14T09:07:51.964Z,100.90
2018-07-14T09:08:51.979Z,99.60
2018-07-14T09:09:52.023Z,95.30
2018-07-14T09:10:52.052Z,91.10
2018-07-14T09:11:52.107Z,111.90
2018-07-14T09:12:52.169Z,102.50
2018-07-14T09:13:52.217Z,103.20
2018-07-14T09:14:52.238Z,107.70
2018-07-14T09:15:52.278Z,107.50
2018-07-14T09:16:52.584Z,110.40
2018-07-14T09:17:52.386Z,107.50
2018-07-14T09:18:52.398Z,108.60
2018-07-14T09:19:52.463Z,106.50
2018-07-14T09:20:52.547Z,103.60
2018-07-14T09:21:52.530Z,98.80
2018-07-14T09:22:52.609Z,98.00
2018-07-14T09:23:52.601Z,97.50
2018-07-14T09:24:52.686Z,98.50
2018-07-14T09:25:52.727Z,96.00
2018-07-14T09:26:52.771Z,93.10
2018-07-14T09:27:52.769Z,96.00
2018-07-14T09:28:53.044Z,94.50
2018-07-14T09:29:52.914Z,90.40
2018-07-14T09:30:52.928Z,87.30
2018-07-14T09:31:52.974Z,87.10
2018-07-14T09:32:53.009Z,85.90
2018-07-14T09:33:53.051Z,84.60
2018-07-14T09:34:53.089Z,85.10
2018-07-14T09:35:53.124Z,84.90
2018-07-14T09:36:53.152Z,82.80
2018-07-14T09:37:53.230Z,85.10
2018-07-14T09:38:53.245Z,82.20
2018-07-14T09:39:53.471Z,84.80
2018-07-14T09:40:53.317Z,79.40
2018-07-14T09:41:53.399Z,84.00
2018-07-14T09:42:53.412Z,83.60
2018-07-14T09:43:53.479Z,78.40
2018-07-14T09:44:53.502Z,78.90
2018-07-14T09:45:53.536Z,78.30
2018-07-14T09:46:53.560Z,77.00
2018-07-14T09:47:53.625Z,77.20
2018-07-14T09:48:53.704Z,77.40
2018-07-14T09:49:53.680Z,74.20
2018-07-14T09:50:53.737Z,75.20
2018-07-14T09:51:53.786Z,74.60
2018-07-14T09:52:53.834Z,79.70
2018-07-14T09:53:53.858Z,81.20
2018-07-14T09:54:54.103Z,79.40
2018-07-14T09:55:53.965Z,86.80
2018-07-14T09:56:53.981Z,78.00
2018-07-14T09:57:54.011Z,75.50
2018-07-14T09:58:54.080Z,73.70
2018-07-14T09:59:54.162Z,69.40
2018-07-14T10:00:54.143Z,71.90
2018-07-14T10:01:54.189Z,71.80
2018-07-14T10:02:54.245Z,73.70
2018-07-14T10:03:54.305Z,76.40
2018-07-14T10:04:54.324Z,73.20
2018-07-14T10:05:54.380Z,68.40
2018-07-14T10:06:54.637Z,73.70
2018-07-14T10:07:54.446Z,65.80
2018-07-14T10:08:54.501Z,67.80
2018-07-14T10:09:54.562Z,75.00
2018-07-14T10:10:54.582Z,68.70
2018-07-14T10:11:54.616Z,71.70
2018-07-14T10:12:54.656Z,68.60
2018-07-14T10:13:54.698Z,64.40
2018-07-14T10:14:54.778Z,65.20
2018-07-14T10:15:54.776Z,64.90
2018-07-14T10:16:54.847Z,63.20
2018-07-14T10:17:54.886Z,65.20
2018-07-14T10:18:55.122Z,65.20
2018-07-14T10:19:54.951Z,63.60
2018-07-14T10:20:54.989Z,63.50
2018-07-14T10:21:55.033Z,67.30
2018-07-14T10:22:55.116Z,67.90
2018-07-14T10:23:55.109Z,82.10
2018-07-14T10:24:55.150Z,83.00
2018-07-14T10:25:55.366Z,78.90
2018-07-14T10:26:55.227Z,78.80
2018-07-14T10:27:55.249Z,78.20
2018-07-14T10:28:55.537Z,81.20
2018-07-14T10:29:55.337Z,82.10
2018-07-14T10:30:55.394Z,79.90
2018-07-14T10:31:55.430Z,79.70
2018-07-14T10:32:55.504Z,77.80
2018-07-14T10:33:55.543Z,77.10
2018-07-14T10:34:55.571Z,81.60
2018-07-14T10:35:55.626Z,86.40
2018-07-14T10:36:55.643Z,83.60
2018-07-14T10:37:55.703Z,81.00
2018-07-14T10:38:55.736Z,82.60
2018-07-14T10:39:55.979Z,81.70
2018-07-14T10:40:55.803Z,81.20
2018-07-14T10:41:55.872Z,85.40
2018-07-14T10:42:55.900Z,82.90
2018-07-14T10:43:55.946Z,81.80
2018-07-14T10:44:55.979Z,82.80
2018-07-14T10:45:56.038Z,82.00
2018-07-14T10:46:56.063Z,90.00
2018-07-14T10:47:56.154Z,89.20
2018-07-14T10:48:56.158Z,86.40
2018-07-14T10:49:56.221Z,87.60
2018-07-14T10:50:56.224Z,85.80
2018-07-14T10:51:56.281Z,89.00
2018-07-14T10:52:56.319Z,83.80
2018-07-14T10:53:56.335Z,81.00
2018-07-14T10:54:56.610Z,81.10
2018-07-14T10:55:56.441Z,82.40
2018-07-14T10:56:56.512Z,81.90
2018-07-14T10:57:56.529Z,81.10
2018-07-14T10:58:56.591Z,85.40
2018-07-14T10:59:56.675Z,88.40
2018-07-14T11:00:56.670Z,91.40
2018-07-14T11:01:56.722Z,85.70
2018-07-14T11:02:56.771Z,85.60
2018-07-14T11:03:56.815Z,84.60
2018-07-14T11:04:56.877Z,76.30
2018-07-14T11:05:56.910Z,75.40
2018-07-14T11:06:57.155Z,77.40
2018-07-14T11:07:57.005Z,77.70
2018-07-14T11:08:57.033Z,75.40
2018-07-14T11:09:57.080Z,78.10
2018-07-14T11:10:57.125Z,77.70
2018-07-14T11:11:57.157Z,85.60
2018-07-14T11:12:57.217Z,82.80
2018-07-14T11:13:57.250Z,79.70
2018-07-14T11:14:57.319Z,81.00
2018-07-14T11:15:57.390Z,78.70
2018-07-14T11:16:57.432Z,80.50
2018-07-14T11:17:57.534Z,81.20
2018-07-14T11:18:57.686Z,87.70
2018-07-14T11:19:57.559Z,74.40
2018-07-14T11:20:57.570Z,72.90
2018-07-14T11:21:57.614Z,71.30
2018-07-14T11:22:57.718Z,72.80
2018-07-14T11:23:57.750Z,70.80
2018-07-14T11:24:57.769Z,72.50
2018-07-14T11:25:57.833Z,71.20
2018-07-14T11:26:57.877Z,69.20
2018-07-14T11:27:57.927Z,68.80
2018-07-14T11:28:57.961Z,70.30
2018-07-14T11:29:58.060Z,66.80
2018-07-14T11:30:58.076Z,66.30
2018-07-14T11:31:58.149Z,67.40
2018-07-14T11:32:58.176Z,66.00
2018-07-14T11:33:58.226Z,69.60
2018-07-14T11:34:58.283Z,66.70
2018-07-14T11:35:58.321Z,65.50
2018-07-14T11:36:58.577Z,65.50
2018-07-14T11:37:58.403Z,70.20
2018-07-14T11:38:58.461Z,69.50
2018-07-14T11:39:58.561Z,69.60
2018-07-14T11:40:58.566Z,71.70
2018-07-14T11:41:58.600Z,71.30
2018-07-14T11:42:58.657Z,70.40
2018-07-14T11:43:58.711Z,74.30
2018-07-14T11:44:58.791Z,72.90
2018-07-14T11:45:58.801Z,74.00
2018-07-14T11:46:58.888Z,73.80
2018-07-14T11:47:58.932Z,80.00
2018-07-14T11:48:59.211Z,74.30
2018-07-14T11:49:59.007Z,75.60
2018-07-14T11:50:59.078Z,82.90
2018-07-14T11:51:59.098Z,81.90
2018-07-14T11:52:59.151Z,82.60
2018-07-14T11:53:59.193Z,80.10
2018-07-14T11:54:59.250Z,83.80
2018-07-14T11:55:59.292Z,83.90
2018-07-14T11:56:59.362Z,89.20
2018-07-14T11:57:59.384Z,88.80
2018-07-14T11:58:59.423Z,84.20
2018-07-14T11:59:59.509Z,92.50
2018-07-14T12:00:59.765Z,97.80
2018-07-14T12:01:59.621Z,102.90
2018-07-14T12:02:59.643Z,100.00
2018-07-14T12:03:59.708Z,97.00
2018-07-14T12:04:59.752Z,104.90
2018-07-14T12:05:59.814Z,110.00
2018-07-14T12:06:59.884Z,111.30
2018-07-14T12:07:59.911Z,112.40
2018-07-14T12:08:59.967Z,113.60
2018-07-14T12:10:00.003Z,117.60
2018-07-14T12:11:00.110Z,118.60
2018-07-14T12:12:00.109Z,113.90
2018-07-14T12:13:00.159Z,112.30
2018-07-14T12:14:00.201Z,112.20
2018-07-14T12:15:00.242Z,117.50
2018-07-14T12:16:00.296Z,110.00
2018-07-14T12:17:00.373Z,111.60
2018-07-14T12:18:00.410Z,111.70
2018-07-14T12:19:00.477Z,113.00
2018-07-14T12:20:00.517Z,110.70
2018-07-14T12:21:00.576Z,115.80
2018-07-14T12:22:00.633Z,118.00
2018-07-14T12:23:00.933Z,119.60
2018-07-14T12:24:00.732Z,125.00
2018-07-14T12:25:00.786Z,129.70
2018-07-14T12:26:00.818Z,128.20
2018-07-14T12:27:00.879Z,124.00
2018-07-14T12:28:00.969Z,124.90
2018-07-14T12:29:00.986Z,123.80
2018-07-14T12:30:01.068Z,119.40
2018-07-14T12:31:01.101Z,117.90
2018-07-14T12:32:01.160Z,122.50
2018-07-14T12:33:01.220Z,124.70
2018-07-14T12:34:01.239Z,122.30
2018-07-14T12:35:01.310Z,123.90
2018-07-14T12:36:01.370Z,115.10
2018-07-14T12:37:01.427Z,118.00
2018-07-14T12:38:01.474Z,115.40
2018-07-14T12:39:01.554Z,119.00
2018-07-14T12:40:01.587Z,115.50
2018-07-14T12:41:01.611Z,115.70
2018-07-14T12:42:01.658Z,114.70
2018-07-14T12:43:01.752Z,115.90
2018-07-14T12:44:01.779Z,115.00
2018-07-14T12:45:01.869Z,115.30
2018-07-14T12:46:01.901Z,111.20
2018-07-14T12:47:01.985Z,113.90
2018-07-14T12:48:02.044Z,115.90
2018-07-14T12:49:02.066Z,104.80
2018-07-14T12:50:02.137Z,95.80
2018-07-14T12:51:02.179Z,95.60